Royal Palm Beach, Florida
Current Conditions -  °F | °C
As of 8:53 PM on Monday 22 Dec 2014 (Local Time) from KPBI Reporting Station
Scattered Clouds Scattered Clouds  
Wind Chill: 76°   Ceiling: Unl
Heat Index: 76°   Visibility: 10mi
Dew Point: 70°   Wind: 6mph
Humidity: 82%   Direction: 170°S
Pressure: 29.96"   Gusts: NA
Location:  26.71°N, 80.23°W
Report Text: KPBI 230153Z 17005KT 10SM SCT250 24/21 A2996 RMK AO2 SLP145 T02440211
Loading
Personal Weather Stations






























Interactive Weather Map New forecast layout! Learn more

10-Day Weather Forecast

Advertisements
Track Severe Weather on mobile